createdAt,value
2022-12-11T08:29:04.659Z,6.60
2022-12-11T08:34:06.718Z,5.60
2022-12-11T08:39:08.738Z,6.23
2022-12-11T08:44:16.632Z,6.78
2022-12-11T08:49:19.193Z,6.43
2022-12-11T08:54:21.186Z,5.37
2022-12-11T08:59:23.643Z,6.33
2022-12-11T09:04:25.669Z,4.55
2022-12-11T09:09:27.714Z,4.35
2022-12-11T09:14:29.735Z,5.40
2022-12-11T09:19:32.490Z,5.03
2022-12-11T09:24:34.707Z,5.55
2022-12-11T09:29:36.815Z,4.43
2022-12-11T09:34:38.813Z,4.32
2022-12-11T09:39:40.854Z,4.22
2022-12-11T09:44:43.334Z,5.10
2022-12-11T09:49:49.211Z,4.53
2022-12-11T09:54:57.269Z,4.68
2022-12-11T10:00:11.871Z,5.05
2022-12-11T10:05:28.956Z,3.33
2022-12-11T10:10:43.678Z,3.53
2022-12-11T10:16:01.179Z,4.37
2022-12-11T10:21:04.102Z,4.53
2022-12-11T10:26:17.866Z,4.95
2022-12-11T10:31:29.957Z,3.90
2022-12-11T10:36:37.206Z,5.30
2022-12-11T10:41:42.174Z,4.93
2022-12-11T10:46:45.573Z,3.65
2022-12-11T10:51:47.709Z,5.95
2022-12-11T10:56:49.842Z,4.77
2022-12-11T11:01:52.064Z,4.20
2022-12-11T11:07:14.383Z,5.93
2022-12-11T11:12:24.342Z,5.27
2022-12-11T11:17:29.571Z,5.65
2022-12-11T11:22:42.016Z,5.05
2022-12-11T11:27:49.094Z,5.70
2022-12-11T11:33:02.920Z,5.47
2022-12-11T11:38:18.910Z,5.50
2022-12-11T11:43:56.355Z,5.32
2022-12-11T11:49:04.103Z,6.57
2022-12-11T11:54:21.148Z,5.10
2022-12-11T11:59:31.124Z,6.78
2022-12-11T12:04:35.280Z,4.80
2022-12-11T12:09:43.606Z,5.45
2022-12-11T12:15:06.384Z,4.93
2022-12-11T12:20:08.515Z,7.40
2022-12-11T12:25:36.787Z,5.13
2022-12-11T12:30:53.421Z,7.18
2022-12-11T12:36:07.104Z,5.85
2022-12-11T12:41:27.815Z,5.67
2022-12-11T12:46:34.216Z,5.78
2022-12-11T12:51:38.071Z,4.93
2022-12-11T12:56:43.582Z,6.87
2022-12-11T13:01:55.213Z,6.37
2022-12-11T13:06:57.512Z,6.43
2022-12-11T13:11:59.550Z,6.13
2022-12-11T13:17:26.498Z,6.37
2022-12-11T13:22:28.618Z,5.97
2022-12-11T13:27:43.635Z,6.47
2022-12-11T13:33:07.585Z,8.87
2022-12-11T13:38:21.091Z,6.85
2022-12-11T13:43:27.127Z,5.87
2022-12-11T13:48:35.098Z,6.47
2022-12-11T13:53:37.362Z,6.75
2022-12-11T13:58:40.050Z,6.00
2022-12-11T14:03:55.487Z,7.07
2022-12-11T14:09:00.578Z,8.77
2022-12-11T14:14:06.745Z,6.53
2022-12-11T14:19:09.842Z,8.95
2022-12-11T14:24:14.209Z,8.13
2022-12-11T14:29:26.531Z,11.20
2022-12-11T14:34:35.455Z,9.38
2022-12-11T14:39:47.668Z,7.13
2022-12-11T14:45:08.063Z,8.82
2022-12-11T14:50:34.627Z,9.80
2022-12-11T14:55:39.415Z,10.83
2022-12-11T15:00:41.463Z,7.97
2022-12-11T15:05:55.330Z,9.27
2022-12-11T15:11:11.219Z,9.43
2022-12-11T15:16:14.563Z,10.07
2022-12-11T15:21:17.241Z,7.72
2022-12-11T15:26:21.256Z,9.18
2022-12-11T15:31:41.419Z,10.33
2022-12-11T15:36:43.461Z,11.02
2022-12-11T15:41:45.522Z,8.95
2022-12-11T15:46:47.646Z,8.37
2022-12-11T15:51:49.682Z,9.30
2022-12-11T15:56:51.759Z,8.25
2022-12-11T16:01:53.842Z,10.70
2022-12-11T16:06:56.312Z,9.47
2022-12-11T16:11:58.329Z,8.95
2022-12-11T16:17:00.377Z,11.00
2022-12-11T16:22:02.629Z,9.23
2022-12-11T16:27:06.030Z,9.90
2022-12-11T16:32:08.697Z,12.40
2022-12-11T16:37:11.114Z,10.90
2022-12-11T16:42:13.193Z,10.00
2022-12-11T16:47:15.229Z,11.18
2022-12-11T16:52:21.999Z,10.27
2022-12-11T16:57:24.810Z,9.00
2022-12-11T17:02:26.935Z,11.75
2022-12-11T17:07:29.071Z,10.07
2022-12-11T17:12:31.125Z,12.40
2022-12-11T17:17:33.310Z,10.68
2022-12-11T17:22:35.755Z,9.68
2022-12-11T17:27:38.030Z,9.60
2022-12-11T17:32:40.142Z,10.53
2022-12-11T17:37:42.171Z,9.73
2022-12-11T17:42:44.957Z,8.60
2022-12-11T17:47:47.030Z,9.30
2022-12-11T17:52:49.072Z,8.90
2022-12-11T17:57:51.340Z,8.10
2022-12-11T18:02:53.388Z,9.70
2022-12-11T18:07:57.928Z,8.73
2022-12-11T18:13:00.992Z,9.82
2022-12-11T18:18:04.304Z,11.40
2022-12-11T18:23:06.728Z,10.37
2022-12-11T18:28:08.790Z,9.95
2022-12-11T18:33:11.096Z,10.05
2022-12-11T18:38:13.235Z,10.43
2022-12-11T18:43:15.293Z,9.13
2022-12-11T18:48:17.386Z,9.93
2022-12-11T18:53:19.847Z,9.47
2022-12-11T18:58:22.037Z,12.85
2022-12-11T19:03:24.120Z,12.52
2022-12-11T19:08:26.545Z,11.83
2022-12-11T19:13:28.675Z,12.07
2022-12-11T19:18:30.783Z,12.05
2022-12-11T19:23:32.885Z,9.85
2022-12-11T19:28:35.071Z,10.20
2022-12-11T19:33:38.187Z,10.25
2022-12-11T19:38:42.399Z,12.73
2022-12-11T19:43:45.433Z,11.43
2022-12-11T19:48:52.034Z,10.65
2022-12-11T19:53:54.567Z,13.23
2022-12-11T19:58:56.930Z,12.13
2022-12-11T20:04:01.569Z,13.83
2022-12-11T20:09:06.100Z,12.93
2022-12-11T20:14:08.970Z,12.90
2022-12-11T20:19:11.051Z,17.50
2022-12-11T20:24:13.139Z,17.42
2022-12-11T20:29:16.259Z,15.52
2022-12-11T20:34:18.955Z,16.93
2022-12-11T20:39:21.010Z,16.10
2022-12-11T20:44:23.105Z,18.50
2022-12-11T20:49:25.436Z,17.40
2022-12-11T20:54:27.593Z,14.33
2022-12-11T20:59:29.708Z,16.58
2022-12-11T21:04:32.336Z,16.30
